Schedule Details


Flight Number: CTN481
Departure: Kastrup (EKCH) at 11:20
Arrival: Franjo Tudman (LDZA) at 13:25
Route: BALOX?M736?SALLO?UM44?KOGIM?UM725?HDO?M725?VOZ?Z21?PISAM?DCT?PUBEG?DCT?PETOV

Weather Information
EKCH 112320Z AUTO 36013KT 9999 BKN078/// OVC120/// 14/10 Q1003 NOSIG
LDZA 112330Z 26009KT 230V300 CAVOK 18/10 Q1007 NOSIG
Schedule Frequency

Route Map